createdAt,value
2023-05-02T00:02:21.839Z,38.58
2023-05-02T00:04:49.133Z,43.58
2023-05-02T00:07:16.095Z,41.88
2023-05-02T00:09:43.187Z,43.90
2023-05-02T00:12:11.566Z,45.55
2023-05-02T00:14:38.608Z,44.67
2023-05-02T00:17:05.688Z,44.63
2023-05-02T00:19:33.880Z,50.83
2023-05-02T00:22:01.284Z,47.83
2023-05-02T00:24:28.348Z,49.47
2023-05-02T00:26:55.428Z,43.90
2023-05-02T00:29:22.359Z,48.50
2023-05-02T00:31:49.486Z,44.13
2023-05-02T00:34:16.475Z,46.42
2023-05-02T00:36:43.525Z,47.30
2023-05-02T00:39:10.987Z,49.38
2023-05-02T00:41:38.016Z,47.25
2023-05-02T00:44:05.208Z,49.25
2023-05-02T00:46:32.433Z,40.00
2023-05-02T00:48:59.494Z,37.88
2023-05-02T00:51:27.613Z,37.90
2023-05-02T00:53:54.721Z,31.77
2023-05-02T00:56:21.842Z,32.65
2023-05-02T00:58:49.089Z,30.52
2023-05-02T01:01:31.485Z,30.80
2023-05-02T01:04:13.911Z,29.73
2023-05-02T01:06:46.803Z,30.15
2023-05-02T01:09:38.024Z,28.85
2023-05-02T01:12:42.094Z,30.70
2023-05-02T01:15:14.082Z,29.93
2023-05-02T01:17:42.547Z,32.85
2023-05-02T01:20:14.094Z,31.52
2023-05-02T01:22:41.717Z,31.15
2023-05-02T01:25:20.544Z,29.67
2023-05-02T01:27:55.174Z,29.33
2023-05-02T01:30:23.290Z,30.48
2023-05-02T01:32:52.578Z,29.88
2023-05-02T01:35:22.724Z,28.60
2023-05-02T01:37:52.983Z,31.55
2023-05-02T01:40:22.856Z,31.33
2023-05-02T01:42:52.976Z,33.78
2023-05-02T01:45:22.021Z,32.25
2023-05-02T01:47:50.517Z,35.55
2023-05-02T01:50:24.197Z,34.65
2023-05-02T01:52:54.023Z,39.03
2023-05-02T01:55:21.729Z,39.95
2023-05-02T01:57:51.204Z,39.17
2023-05-02T02:00:19.793Z,40.38
2023-05-02T02:02:49.216Z,39.10
2023-05-02T02:05:18.689Z,41.72
2023-05-02T02:07:46.563Z,46.10
2023-05-02T02:10:13.912Z,44.72
2023-05-02T02:12:43.971Z,40.40
2023-05-02T02:15:17.437Z,39.20
2023-05-02T02:17:48.349Z,38.13
2023-05-02T02:20:17.052Z,35.65
2023-05-02T02:22:45.900Z,34.17
2023-05-02T02:25:16.508Z,32.00
2023-05-02T02:27:45.430Z,33.15
2023-05-02T02:30:12.693Z,38.15
2023-05-02T02:32:39.920Z,39.25
2023-05-02T02:35:07.912Z,42.75
2023-05-02T02:37:41.255Z,48.28
2023-05-02T02:40:31.705Z,47.00
2023-05-02T02:43:23.665Z,44.95
2023-05-02T02:46:18.549Z,45.28
2023-05-02T02:49:15.380Z,54.42
2023-05-02T02:51:56.656Z,47.30
2023-05-02T02:54:41.958Z,51.50
2023-05-02T02:57:18.901Z,47.53
2023-05-02T03:00:11.135Z,51.70
2023-05-02T03:02:40.983Z,52.42
2023-05-02T03:05:10.612Z,45.78
2023-05-02T03:07:37.668Z,50.90
2023-05-02T03:10:06.055Z,50.78
2023-05-02T03:12:33.086Z,52.72
2023-05-02T03:15:06.056Z,53.60
2023-05-02T03:17:33.279Z,51.72
2023-05-02T03:20:00.585Z,54.00
2023-05-02T03:22:27.913Z,56.90
2023-05-02T03:24:54.921Z,57.42
2023-05-02T03:27:21.913Z,52.25
2023-05-02T03:29:49.126Z,56.35
2023-05-02T03:32:16.817Z,59.78
2023-05-02T03:34:43.911Z,55.30
2023-05-02T03:37:10.952Z,55.10
2023-05-02T03:39:37.995Z,54.08
2023-05-02T03:42:05.780Z,58.17
2023-05-02T03:44:32.763Z,55.40
2023-05-02T03:46:59.823Z,61.65
2023-05-02T03:49:27.128Z,55.65
2023-05-02T03:51:54.126Z,53.42
2023-05-02T03:54:21.089Z,59.33
2023-05-02T03:56:48.272Z,55.55
2023-05-02T03:59:15.615Z,52.50
2023-05-02T04:01:42.604Z,55.97
2023-05-02T04:04:10.258Z,60.58
2023-05-02T04:06:38.407Z,55.00
2023-05-02T04:09:05.916Z,55.50
2023-05-02T04:11:32.968Z,51.97
2023-05-02T04:13:59.993Z,50.72
2023-05-02T04:16:27.196Z,51.08
2023-05-02T04:18:54.194Z,55.42
2023-05-02T04:21:21.187Z,55.20
2023-05-02T04:23:48.284Z,49.53
2023-05-02T04:26:15.769Z,53.95
2023-05-02T04:28:42.917Z,51.53
2023-05-02T04:31:10.002Z,48.78
2023-05-02T04:33:37.053Z,53.30
2023-05-02T04:36:04.268Z,71.85
2023-05-02T04:38:31.460Z,67.97
2023-05-02T04:40:58.452Z,65.38
2023-05-02T04:43:26.888Z,61.95
2023-05-02T04:45:53.879Z,61.22
2023-05-02T04:48:22.821Z,67.07
2023-05-02T04:50:50.273Z,64.00
2023-05-02T04:53:17.240Z,60.30
2023-05-02T04:55:44.297Z,59.15
2023-05-02T04:58:11.404Z,57.72
2023-05-02T05:00:38.894Z,57.20
2023-05-02T05:03:06.636Z,56.67
2023-05-02T05:05:33.970Z,55.03
2023-05-02T05:08:01.149Z,56.63
2023-05-02T05:10:28.141Z,49.83
2023-05-02T05:12:55.272Z,49.08
2023-05-02T05:15:24.181Z,49.15
2023-05-02T05:17:52.719Z,44.13
2023-05-02T05:20:20.050Z,41.50
2023-05-02T05:22:47.035Z,39.92
2023-05-02T05:25:14.221Z,38.65
2023-05-02T05:27:41.196Z,37.40
2023-05-02T05:30:11.435Z,37.78
2023-05-02T05:32:38.857Z,34.20
2023-05-02T05:35:06.481Z,34.53
2023-05-02T05:37:33.763Z,32.00
2023-05-02T05:40:01.637Z,30.85
2023-05-02T05:42:28.867Z,29.30
2023-05-02T05:44:56.168Z,29.15
2023-05-02T05:47:23.505Z,28.08
2023-05-02T05:49:54.746Z,26.80
2023-05-02T05:52:21.968Z,26.10
2023-05-02T05:54:49.016Z,25.27
2023-05-02T05:57:15.991Z,24.25
2023-05-02T05:59:43.070Z,22.77
2023-05-02T06:02:11.020Z,23.77
2023-05-02T06:04:38.068Z,23.23
2023-05-02T06:07:05.094Z,22.95
2023-05-02T06:09:32.112Z,23.05
2023-05-02T06:11:59.148Z,22.73
2023-05-02T06:14:26.876Z,23.73
2023-05-02T06:16:53.884Z,23.42
2023-05-02T06:19:22.710Z,23.30
2023-05-02T06:21:49.649Z,23.92
2023-05-02T06:24:16.750Z,23.40
2023-05-02T06:26:43.910Z,23.27
2023-05-02T06:29:10.932Z,23.27
2023-05-02T06:31:38.078Z,23.90
2023-05-02T06:34:05.181Z,24.75
2023-05-02T06:36:32.321Z,23.92
2023-05-02T06:38:59.261Z,23.02
2023-05-02T06:41:26.203Z,23.92
2023-05-02T06:43:53.160Z,23.58
2023-05-02T06:46:21.067Z,22.95
2023-05-02T06:48:48.263Z,23.73
2023-05-02T06:51:15.725Z,23.40
2023-05-02T06:53:42.740Z,23.85
2023-05-02T06:56:09.734Z,23.42
2023-05-02T06:58:36.879Z,24.10
2023-05-02T07:01:03.953Z,23.40
2023-05-02T07:03:31.011Z,23.58
2023-05-02T07:05:58.272Z,23.92
2023-05-02T07:08:25.292Z,24.15
2023-05-02T07:10:52.264Z,23.17
2023-05-02T07:13:19.242Z,24.08
2023-05-02T07:15:46.228Z,23.92
2023-05-02T07:18:13.281Z,24.65
2023-05-02T07:20:42.450Z,23.92
2023-05-02T07:23:09.503Z,24.20
2023-05-02T07:25:37.025Z,24.38
2023-05-02T07:28:04.277Z,25.05
2023-05-02T07:30:31.348Z,23.63
2023-05-02T07:32:58.466Z,24.45
2023-05-02T07:35:25.812Z,24.90
2023-05-02T07:37:52.777Z,24.02
2023-05-02T07:40:19.835Z,24.45
2023-05-02T07:42:46.880Z,25.25
2023-05-02T07:45:13.958Z,26.02
2023-05-02T07:47:42.024Z,25.38
2023-05-02T07:50:09.470Z,25.65
2023-05-02T07:52:36.518Z,25.90
2023-05-02T07:55:03.991Z,25.85
2023-05-02T07:57:31.084Z,26.42
2023-05-02T07:59:58.204Z,25.42
2023-05-02T08:02:26.258Z,25.08
2023-05-02T08:04:55.489Z,25.30
2023-05-02T08:07:22.500Z,25.40
2023-05-02T08:09:49.452Z,24.55
2023-05-02T08:12:16.483Z,25.98
2023-05-02T08:14:43.420Z,25.15
2023-05-02T08:17:10.641Z,25.45
2023-05-02T08:19:37.580Z,25.63
2023-05-02T08:22:04.538Z,26.02
2023-05-02T08:24:31.555Z,25.08
2023-05-02T08:26:58.524Z,24.63
2023-05-02T08:29:25.729Z,25.25
2023-05-02T08:31:54.263Z,25.17
2023-05-02T08:34:21.758Z,25.92
2023-05-02T08:36:48.774Z,24.77
2023-05-02T08:39:17.140Z,25.15
2023-05-02T08:41:44.979Z,23.98
2023-05-02T08:44:12.658Z,25.02
2023-05-02T08:46:41.926Z,23.95
2023-05-02T08:49:12.643Z,24.30
2023-05-02T08:51:42.375Z,23.98
2023-05-02T08:54:10.204Z,23.58
2023-05-02T08:56:38.472Z,23.67
2023-05-02T08:59:07.003Z,23.65
2023-05-02T09:01:35.973Z,23.10
2023-05-02T09:04:03.541Z,22.95
2023-05-02T09:06:30.600Z,22.60
2023-05-02T09:09:00.409Z,22.75
2023-05-02T09:11:27.507Z,22.55
2023-05-02T09:13:54.554Z,22.75
2023-05-02T09:16:23.601Z,23.08
2023-05-02T09:18:51.472Z,22.30
2023-05-02T09:21:23.011Z,21.90
2023-05-02T09:23:53.420Z,22.45
2023-05-02T09:26:22.487Z,21.40
2023-05-02T09:28:56.754Z,20.85
2023-05-02T09:34:16.925Z,22.55
2023-05-02T09:36:51.553Z,21.55
2023-05-02T09:39:26.042Z,21.05
2023-05-02T09:41:54.740Z,21.80
2023-05-02T09:44:36.304Z,20.63
2023-05-02T09:47:03.403Z,21.98
2023-05-02T09:49:56.629Z,22.35
2023-05-02T09:52:23.655Z,22.40
2023-05-02T09:54:52.433Z,21.85
2023-05-02T09:57:20.014Z,22.08
2023-05-02T09:59:57.588Z,21.73
2023-05-02T10:02:25.634Z,21.98
2023-05-02T10:04:55.911Z,21.92
2023-05-02T10:07:23.274Z,22.33
2023-05-02T10:09:51.586Z,22.10
2023-05-02T10:12:23.422Z,23.38
2023-05-02T10:15:04.676Z,21.92
2023-05-02T10:17:34.403Z,22.08
2023-05-02T10:20:05.343Z,22.13
2023-05-02T10:22:34.177Z,21.23
2023-05-02T10:25:03.319Z,21.50
2023-05-02T10:27:33.051Z,22.20
2023-05-02T10:30:00.867Z,22.15
2023-05-02T10:32:36.183Z,23.02
2023-05-02T10:35:05.358Z,23.13
2023-05-02T10:37:35.720Z,22.77
2023-05-02T10:40:03.496Z,23.27
2023-05-02T10:42:31.528Z,23.35
2023-05-02T10:45:02.036Z,23.30
2023-05-02T10:47:30.699Z,24.05
2023-05-02T10:50:02.459Z,23.40
2023-05-02T10:52:32.001Z,23.25
2023-05-02T10:55:24.050Z,23.48
2023-05-02T10:58:09.694Z,22.92
2023-05-02T11:00:38.230Z,23.48
2023-05-02T11:03:05.526Z,23.60
2023-05-02T11:05:37.503Z,23.20
2023-05-02T11:08:19.426Z,22.48
2023-05-02T11:10:48.272Z,22.40
2023-05-02T11:13:15.758Z,23.27
2023-05-02T11:15:42.697Z,23.80
2023-05-02T11:18:13.402Z,23.95
2023-05-02T11:20:45.636Z,25.55
2023-05-02T11:23:16.301Z,23.63
2023-05-02T11:25:44.741Z,22.80
2023-05-02T11:28:36.711Z,22.40
2023-05-02T11:31:05.276Z,23.05
2023-05-02T11:33:32.616Z,23.35
2023-05-02T11:35:59.839Z,22.98
2023-05-02T11:38:35.457Z,23.02
2023-05-02T11:41:04.756Z,22.52
2023-05-02T11:43:32.739Z,21.85
2023-05-02T11:46:02.130Z,21.83
2023-05-02T11:48:30.978Z,21.40
2023-05-02T11:51:03.804Z,22.23
2023-05-02T11:53:31.795Z,26.13
2023-05-02T11:56:04.623Z,25.33
2023-05-02T11:58:33.621Z,24.73
2023-05-02T12:01:15.676Z,25.50
2023-05-02T12:03:44.371Z,25.02
2023-05-02T12:06:16.671Z,24.10
2023-05-02T12:08:45.136Z,24.67
2023-05-02T12:11:17.124Z,24.23
2023-05-02T12:13:49.070Z,23.80
2023-05-02T12:16:17.535Z,25.05
2023-05-02T12:18:45.291Z,26.63
2023-05-02T12:21:12.579Z,27.70
2023-05-02T12:23:42.620Z,27.25
2023-05-02T12:26:19.690Z,27.20
2023-05-02T12:28:51.483Z,28.25
2023-05-02T12:31:18.774Z,27.25
2023-05-02T12:33:48.423Z,28.20
2023-05-02T12:36:15.890Z,30.27
2023-05-02T12:38:51.152Z,31.15
2023-05-02T12:41:18.376Z,30.33
2023-05-02T12:43:49.970Z,27.70
2023-05-02T12:46:17.863Z,27.30
2023-05-02T12:48:46.250Z,28.98
2023-05-02T12:51:29.087Z,28.23
2023-05-02T12:53:56.842Z,28.50
2023-05-02T12:56:24.701Z,24.85
2023-05-02T12:58:51.748Z,24.40
2023-05-02T13:01:19.146Z,24.75
2023-05-02T13:03:46.342Z,25.77
2023-05-02T13:06:13.387Z,25.67
2023-05-02T13:08:40.548Z,25.83
2023-05-02T13:11:07.508Z,24.88
2023-05-02T13:13:35.600Z,25.90
2023-05-02T13:16:02.811Z,24.05
2023-05-02T13:18:30.010Z,24.02
2023-05-02T13:20:57.650Z,24.55
2023-05-02T13:23:24.755Z,24.27
2023-05-02T13:25:52.139Z,25.38
2023-05-02T13:28:19.917Z,24.73
2023-05-02T13:30:47.144Z,23.45
2023-05-02T13:33:14.160Z,23.40
2023-05-02T13:35:41.571Z,23.60
2023-05-02T13:38:08.550Z,23.85
2023-05-02T13:40:37.709Z,22.92
2023-05-02T13:43:04.723Z,22.92
2023-05-02T13:45:32.325Z,22.35
2023-05-02T13:47:59.730Z,22.77
2023-05-02T13:50:27.420Z,23.55
2023-05-02T13:52:54.756Z,23.95
2023-05-02T13:55:21.945Z,24.58
2023-05-02T13:57:50.168Z,24.92
2023-05-02T14:00:17.956Z,25.50
2023-05-02T14:02:48.434Z,27.15
2023-05-02T14:05:16.907Z,27.33
2023-05-02T14:07:45.526Z,26.40
2023-05-02T14:10:12.657Z,27.60
2023-05-02T14:12:39.707Z,25.88
2023-05-02T14:15:07.410Z,26.90
2023-05-02T14:17:34.549Z,26.33
2023-05-02T14:20:02.238Z,26.23
2023-05-02T14:22:29.455Z,26.60
2023-05-02T14:24:57.688Z,26.77
2023-05-02T14:27:25.921Z,26.35
2023-05-02T14:29:54.241Z,28.50
2023-05-02T14:32:21.980Z,26.38
2023-05-02T14:34:49.132Z,27.90
2023-05-02T14:37:16.772Z,26.75
2023-05-02T14:39:47.435Z,26.70
2023-05-02T14:42:17.010Z,27.65
2023-05-02T14:44:45.020Z,26.00
2023-05-02T14:47:12.136Z,25.58
2023-05-02T14:49:39.632Z,26.17
2023-05-02T14:52:06.623Z,30.30
2023-05-02T14:54:33.652Z,29.88
2023-05-02T14:57:01.197Z,31.35
2023-05-02T14:59:31.582Z,31.42
2023-05-02T15:02:00.207Z,28.40
2023-05-02T15:04:27.936Z,26.65
2023-05-02T15:06:56.802Z,26.27
2023-05-02T15:09:26.758Z,25.88
2023-05-02T15:11:54.337Z,26.23
2023-05-02T15:14:21.665Z,24.95
2023-05-02T15:16:48.844Z,25.50
2023-05-02T15:19:16.099Z,25.77
2023-05-02T15:21:43.146Z,26.30
2023-05-02T15:24:10.782Z,27.58
2023-05-02T15:26:38.591Z,28.15
2023-05-02T15:29:05.675Z,27.38
2023-05-02T15:31:34.256Z,26.80
2023-05-02T15:34:01.655Z,27.70
2023-05-02T15:36:29.936Z,27.25
2023-05-02T15:38:57.624Z,27.73
2023-05-02T15:41:28.006Z,27.98
2023-05-02T15:43:55.476Z,28.40
2023-05-02T15:46:22.595Z,28.60
2023-05-02T15:48:50.768Z,27.52
2023-05-02T15:51:18.057Z,28.48
2023-05-02T15:53:49.759Z,29.05
2023-05-02T15:56:16.941Z,26.75
2023-05-02T15:58:43.968Z,28.00
2023-05-02T16:01:11.208Z,26.27
2023-05-02T16:03:38.489Z,26.35
2023-05-02T16:06:07.945Z,27.48
2023-05-02T16:08:35.184Z,30.25
2023-05-02T16:11:02.205Z,31.02
2023-05-02T16:13:29.340Z,31.27
2023-05-02T16:15:56.631Z,31.48
2023-05-02T16:18:28.575Z,32.40
2023-05-02T16:20:59.773Z,36.40
2023-05-02T16:23:27.472Z,35.45
2023-05-02T16:25:58.734Z,34.25
2023-05-02T16:28:25.915Z,30.63
2023-05-02T16:30:53.096Z,30.92
2023-05-02T16:33:21.912Z,30.50
2023-05-02T16:35:49.262Z,28.83
2023-05-02T16:38:16.396Z,27.73
2023-05-02T16:40:43.521Z,27.73
2023-05-02T16:43:10.719Z,26.65
2023-05-02T16:45:38.742Z,27.58
2023-05-02T16:48:06.046Z,28.02
2023-05-02T16:50:34.498Z,27.27
2023-05-02T16:53:01.738Z,27.27
2023-05-02T16:55:29.255Z,26.80
2023-05-02T16:57:56.538Z,27.63
2023-05-02T17:00:23.853Z,27.17
2023-05-02T17:02:55.131Z,27.20
2023-05-02T17:05:23.077Z,27.58
2023-05-02T17:07:50.205Z,27.90
2023-05-02T17:10:17.401Z,27.25
2023-05-02T17:12:44.955Z,27.15
2023-05-02T17:15:12.205Z,28.58
2023-05-02T17:17:39.644Z,27.52
2023-05-02T17:20:07.294Z,27.60
2023-05-02T17:22:35.926Z,27.45
2023-05-02T17:25:03.040Z,28.88
2023-05-02T17:27:30.142Z,28.65
2023-05-02T17:29:57.177Z,28.45
2023-05-02T17:32:24.339Z,28.85
2023-05-02T17:34:51.444Z,34.78
2023-05-02T17:37:18.502Z,33.88
2023-05-02T17:39:46.364Z,29.92
2023-05-02T17:42:13.398Z,29.48
2023-05-02T17:44:40.665Z,29.38
2023-05-02T17:47:08.765Z,36.53
2023-05-02T17:49:35.880Z,37.80
2023-05-02T17:52:03.722Z,32.50
2023-05-02T17:54:30.792Z,29.73
2023-05-02T17:56:58.166Z,30.92
2023-05-02T17:59:25.665Z,30.65
2023-05-02T18:01:52.803Z,33.53
2023-05-02T18:04:20.847Z,36.83
2023-05-02T18:06:49.586Z,32.10
2023-05-02T18:09:16.723Z,44.28
2023-05-02T18:11:44.737Z,35.58
2023-05-02T18:14:13.083Z,30.83
2023-05-02T18:16:41.844Z,28.40
2023-05-02T18:19:09.139Z,28.52
2023-05-02T18:21:38.049Z,29.23
2023-05-02T18:24:06.441Z,28.42
2023-05-02T18:26:33.787Z,29.73
2023-05-02T18:29:01.176Z,28.25
2023-05-02T18:31:28.314Z,27.83
2023-05-02T18:33:55.496Z,29.27
2023-05-02T18:36:29.651Z,30.17
2023-05-02T18:41:24.520Z,31.33
2023-05-02T18:43:51.778Z,36.88
2023-05-02T18:46:19.030Z,34.22
2023-05-02T18:48:46.562Z,34.08
2023-05-02T18:51:13.600Z,34.22
2023-05-02T18:53:40.640Z,33.40
2023-05-02T18:56:17.210Z,32.17
2023-05-02T18:58:44.306Z,33.00
2023-05-02T19:01:15.376Z,32.90
2023-05-02T19:03:44.090Z,32.83
2023-05-02T19:06:11.494Z,33.70
2023-05-02T19:08:40.797Z,36.15
2023-05-02T19:11:07.920Z,35.05
2023-05-02T19:13:35.012Z,37.90
2023-05-02T19:16:02.225Z,39.42
2023-05-02T19:18:30.648Z,37.63
2023-05-02T19:20:57.721Z,36.30
2023-05-02T19:23:25.747Z,38.45
2023-05-02T19:25:53.084Z,39.60
2023-05-02T19:28:20.122Z,42.08
2023-05-02T19:30:47.377Z,43.28
2023-05-02T19:33:14.501Z,45.17
2023-05-02T19:35:42.916Z,45.88
2023-05-02T19:38:10.779Z,43.95
2023-05-02T19:40:37.754Z,40.00
2023-05-02T19:43:04.883Z,40.92
2023-05-02T19:45:31.942Z,42.45
2023-05-02T19:47:59.227Z,38.70
2023-05-02T19:50:26.942Z,43.60
2023-05-02T19:52:54.000Z,40.35
2023-05-02T19:55:21.345Z,39.33
2023-05-02T19:57:49.088Z,42.15
2023-05-02T20:00:16.453Z,40.53
2023-05-02T20:02:43.796Z,39.88
2023-05-02T20:05:10.899Z,42.38
2023-05-02T20:07:38.034Z,41.00
2023-05-02T20:10:05.534Z,42.90
2023-05-02T20:12:32.764Z,41.72
2023-05-02T20:15:00.919Z,41.45
2023-05-02T20:17:29.559Z,41.38
2023-05-02T20:19:57.140Z,39.75
2023-05-02T20:22:24.455Z,40.67
2023-05-02T20:24:51.567Z,42.95
2023-05-02T20:27:18.605Z,40.13
2023-05-02T20:29:45.728Z,42.78
2023-05-02T20:32:13.800Z,41.55
2023-05-02T20:34:40.908Z,45.92
2023-05-02T20:37:08.113Z,46.33
2023-05-02T20:39:35.514Z,47.45
2023-05-02T20:42:04.348Z,40.20
2023-05-02T20:44:36.930Z,37.40
2023-05-02T20:47:04.183Z,37.00
2023-05-02T20:49:32.614Z,34.03
2023-05-02T20:52:04.131Z,37.08
2023-05-02T20:54:31.162Z,37.10
2023-05-02T20:56:58.183Z,36.28
2023-05-02T20:59:26.026Z,38.33
2023-05-02T21:01:53.124Z,38.72
2023-05-02T21:04:20.273Z,38.53
2023-05-02T21:06:47.743Z,39.65
2023-05-02T21:09:17.174Z,38.65
2023-05-02T21:11:44.703Z,38.30
2023-05-02T21:14:12.854Z,37.05
2023-05-02T21:16:40.014Z,37.78
2023-05-02T21:19:07.382Z,38.58
2023-05-02T21:21:35.006Z,37.47
2023-05-02T21:24:02.373Z,39.92
2023-05-02T21:26:30.479Z,43.45
2023-05-02T21:28:57.581Z,40.85
2023-05-02T21:31:24.519Z,43.03
2023-05-02T21:33:51.674Z,41.00
2023-05-02T21:36:18.671Z,43.35
2023-05-02T21:38:45.769Z,41.90
2023-05-02T21:41:12.810Z,41.50
2023-05-02T21:43:41.038Z,38.17
2023-05-02T21:46:10.446Z,37.25
2023-05-02T21:48:37.644Z,37.83
2023-05-02T21:51:09.042Z,38.97
2023-05-02T21:53:36.093Z,37.38
2023-05-02T21:56:04.904Z,40.45
2023-05-02T21:58:32.300Z,38.72
2023-05-02T22:00:59.761Z,38.58
2023-05-02T22:03:27.595Z,40.95
2023-05-02T22:05:56.256Z,39.90
2023-05-02T22:08:24.552Z,38.53
2023-05-02T22:10:51.660Z,36.50
2023-05-02T22:13:18.762Z,45.40
2023-05-02T22:15:47.126Z,49.28
2023-05-02T22:18:15.852Z,55.65
2023-05-02T22:20:44.374Z,50.22
2023-05-02T22:23:12.398Z,53.65
2023-05-02T22:25:44.410Z,58.25
2023-05-02T22:28:12.560Z,53.80
2023-05-02T22:30:43.111Z,60.17
2023-05-02T22:33:10.592Z,37.35
2023-05-02T22:35:38.154Z,37.63
2023-05-02T22:38:06.765Z,34.58
2023-05-02T22:40:33.886Z,38.65
2023-05-02T22:43:01.399Z,37.75
2023-05-02T22:45:28.562Z,39.25
2023-05-02T22:47:56.378Z,39.05
2023-05-02T22:50:24.795Z,38.95
2023-05-02T22:52:51.976Z,37.00
2023-05-02T22:55:19.971Z,40.78
2023-05-02T22:57:47.293Z,36.30
2023-05-02T23:00:17.507Z,39.63
2023-05-02T23:02:45.267Z,38.38
2023-05-02T23:05:12.418Z,39.53
2023-05-02T23:07:40.612Z,39.88
2023-05-02T23:10:08.835Z,40.28
2023-05-02T23:12:36.247Z,40.97
2023-05-02T23:15:03.363Z,40.42
2023-05-02T23:17:30.527Z,40.97
2023-05-02T23:19:58.387Z,38.90
2023-05-02T23:22:25.755Z,40.45
2023-05-02T23:24:52.936Z,40.75
2023-05-02T23:27:20.480Z,40.70
2023-05-02T23:29:49.194Z,40.05
2023-05-02T23:32:17.200Z,42.05
2023-05-02T23:34:44.700Z,42.15
2023-05-02T23:37:13.298Z,41.10
2023-05-02T23:39:40.844Z,35.85
2023-05-02T23:42:08.045Z,41.00
2023-05-02T23:44:34.989Z,38.50
2023-05-02T23:47:02.546Z,40.28
2023-05-02T23:49:29.613Z,40.28
2023-05-02T23:51:56.839Z,39.97
2023-05-02T23:54:23.852Z,36.28
2023-05-02T23:56:53.428Z,37.35
2023-05-02T23:59:20.672Z,38.70
